Samson, AL (36477)

7:39 AM CDT on March 29, 2015 (GMT -0500)
New Hope | | Change Station
CLOSE
Current Station
Personal Weather Station
Location: Westville, FL
Elevation: 190 ft
Nearby Weather Stations

Elev 190 ft 30.96 °N, 85.89 °W | Updated 10 seconds ago

Partly Cloudy
Partly Cloudy
42.8 °F
Feels Like 43 °F
N
0.4
Wind Variable Wind from NNE
Gusts 2.5 mph

Today
High -- | Low -- °F
--% Chance of Precip.
Yesterday
High -- | Low -- °F
Precip. -- in
6:37 AM 7:01 PM
Waxing Gibbous, 71% visible
Pressure 30.37 in
Visibility 10.0 miles
Clouds Mostly Cloudy 7000 ft
Windchill 43 °F
Dew Point 36 °F
Humidity 76%
Rainfall 0.00 in
Snow Depth Not available.
UV 1.0 out of 12
Pollen 9.40 out of 12
Air Quality Not available.
Flu Activity Not available.
METAR K0J4 291158Z AUTO 04004KT 10SM BKN070 05/01 A3037 RMK AO2 SLP283 T00500006 10056 20022 53015

More Conditions Fewer Conditions

Pressure 30.37 in
Visibility 10.0 miles
Clouds Mostly Cloudy 7000 ft
Windchill 43 °F
Dew Point 36 °F
Humidity 76%
Rainfall 0.00 in
Snow Depth Not available.
UV 1.0 out of 12
Pollen 9.40 out of 12
Air Quality Not available.
Flu Activity Not available.
METAR K0J4 291158Z AUTO 04004KT 10SM BKN070 05/01 A3037 RMK AO2 SLP283 T00500006 10056 20022 53015

More Conditions Fewer Conditions

10-Day Weather Forecast

Almanac

Astronomy

Mar. 29, 2015 Rise Set
Actual Time
Civil Twilight
Nautical Twilight
Astronomical Twilight
Moon
Length of Visible Light
Length of Day
Tomorrow will be .
, % of the Moon is Illuminated

Today's Extremes

State Highs State Lows

Community

WunderPhotos

Upload Photos

1,809,230 photos uploaded!

WunderBlogs® & News

Nearby

Air Quality

  Air Quality AQ Index Pollutant
Not available.

Snow Depth

Station Depth Elevation

Earthquake Activity

City Distance Mag. Time & Date
Minimum magnitude displayed is 2.5.

Coastal Water Temperatures

Place Temperature

Stations

Nearby Weather Stations

Station Location Temp. Windchill Dew Point Humidity Wind Precip. Elev Updated Type